»·PEaware :: SWA4246 KSFO-KSAN

SWA4246 :: KSFO-KSAN

FLIGHT INFORMATION

Flight Status: Arrived
Operator:
Southwest Airlines
More flights by this operator :: More flights under this callsign
Pilot: Anonymous 14167 (14167)
Aircraft: BOEING 737-800
(B738)
More flights by this aircraft type
Origin: KSFO San Francisco Intl
United States
Destination: KSAN San Diego Intl-Lindbergh
United States
More flights between these airports :: More routes between these airports
Route: +OFFSH1 MCKEY LAX COMIX1
File this flight plan on PilotEdge
Remarks:
Altitude:
(Current/Filed)
35,000ft
Speed:
(Current/Filed)
450kts
Departed: 21-Dec-17 07:48 PM
Arrived: 21-Dec-17 09:03 PM
Distance/Time
Traveled:
388nm/1:15
Distance/Time
To Go:
Arrived

Flight Plot

Page will automatically refresh every two minutes.

Flight plan parsing failed; only flown route is shown


Map Options




Map Legend


Flown Route
Filed Route
Departure Airport
Arrival Airport
Navaid (VOR, NDB)
Fix

Horizontal Profiles

Position Reports

Time Latitude Longitude Heading Altitude Ground
Speed
21-Dec-17 19:18 37.612829 -122.383164 296 20ft 0kts
21-Dec-17 19:19 37.612829 -122.383164 296 20ft 0kts
21-Dec-17 19:20 37.612829 -122.383164 296 20ft 0kts
21-Dec-17 19:21 37.612829 -122.383164 296 20ft 0kts
21-Dec-17 19:22 37.612829 -122.383164 296 20ft 0kts
21-Dec-17 19:23 37.612829 -122.383164 296 20ft 0kts
21-Dec-17 19:24 37.612829 -122.383164 296 20ft 0kts
21-Dec-17 19:25 37.612829 -122.383164 296 20ft 0kts
21-Dec-17 19:26 37.612829 -122.383164 296 20ft 0kts
21-Dec-17 19:27 37.612829 -122.383164 296 20ft 0kts
21-Dec-17 19:28 37.612829 -122.383164 296 20ft 0kts
21-Dec-17 19:29 37.612829 -122.383164 296 20ft 0kts
21-Dec-17 19:30 37.612829 -122.383164 296 20ft 0kts
21-Dec-17 19:31 37.612829 -122.383164 296 20ft 0kts
21-Dec-17 19:32 37.612829 -122.383164 296 20ft 0kts
21-Dec-17 19:33 37.612829 -122.383164 296 20ft 0kts
21-Dec-17 19:34 37.612829 -122.383164 296 20ft 0kts
21-Dec-17 19:35 37.612829 -122.383164 296 20ft 0kts
21-Dec-17 19:36 37.612829 -122.383164 296 20ft 0kts
21-Dec-17 19:37 37.612829 -122.383164 296 20ft 0kts
21-Dec-17 19:38 37.612829 -122.383164 296 20ft 0kts
21-Dec-17 19:39 37.612829 -122.383164 296 20ft 0kts
21-Dec-17 19:40 37.612829 -122.383164 296 20ft 0kts
21-Dec-17 19:41 37.612829 -122.383164 296 20ft 0kts
21-Dec-17 19:42 37.612829 -122.383164 296 20ft 0kts
21-Dec-17 19:43 37.612829 -122.383164 296 20ft 0kts
21-Dec-17 19:44 37.612829 -122.383164 296 20ft 0kts
21-Dec-17 19:45 37.612829 -122.383164 296 20ft 0kts
21-Dec-17 19:46 37.612729 -122.382912 297 21ft 2kts
21-Dec-17 19:47 37.612525 -122.382363 247 20ft 1kts
21-Dec-17 19:48 37.612616 -122.382265 208 20ft 0kts
21-Dec-17 19:49 37.612616 -122.382265 208 20ft 0kts
21-Dec-17 19:50 37.612616 -122.382265 208 20ft 0kts
21-Dec-17 19:51 37.610878 -122.382840 163 20ft 7kts
21-Dec-17 19:52 37.608507 -122.383802 144 20ft 6kts
21-Dec-17 19:53 37.608266 -122.382723 27 20ft 0kts
21-Dec-17 19:54 37.614548 -122.378598 26 21ft 120kts
21-Dec-17 19:55 37.656156 -122.354648 355 2131ft 181kts
21-Dec-17 19:56 37.692499 -122.381631 282 3864ft 208kts
21-Dec-17 19:57 37.669985 -122.443192 239 6616ft 212kts
21-Dec-17 19:58 37.639998 -122.506003 240 9274ft 229kts
21-Dec-17 19:59 37.590417 -122.574310 231 10949ft 299kts
21-Dec-17 20:00 37.526496 -122.648544 227 13445ft 336kts
21-Dec-17 20:01 37.459331 -122.700494 185 15722ft 366kts
21-Dec-17 20:02 37.339062 -122.671338 169 18827ft 391kts
21-Dec-17 20:03 37.249104 -122.647349 169 20935ft 406kts
21-Dec-17 20:04 37.117355 -122.612690 169 23684ft 426kts
21-Dec-17 20:05 37.019487 -122.587001 169 25443ft 442kts
21-Dec-17 20:06 36.898127 -122.555300 169 27660ft 453kts
21-Dec-17 20:07 36.774882 -122.523415 168 29854ft 455kts
21-Dec-17 20:08 36.651434 -122.491485 168 31718ft 458kts
21-Dec-17 20:09 36.526805 -122.459261 168 33378ft 461kts
21-Dec-17 20:10 36.407254 -122.410466 128 34843ft 450kts
21-Dec-17 20:11 36.324997 -122.291979 125 35170ft 471kts
21-Dec-17 20:12 36.236526 -122.165474 125 35173ft 505kts
21-Dec-17 20:13 36.143662 -122.032902 125 35251ft 511kts
21-Dec-17 20:14 36.050876 -121.900174 125 35300ft 511kts
21-Dec-17 20:15 35.966669 -121.779525 125 35302ft 511kts
21-Dec-17 20:16 35.874632 -121.647451 125 35284ft 511kts
21-Dec-17 20:17 35.782458 -121.514966 125 35288ft 511kts
21-Dec-17 20:18 35.691469 -121.386235 126 35292ft 512kts
21-Dec-17 20:19 35.602179 -121.256047 125 35288ft 511kts
21-Dec-17 20:20 35.510647 -121.122953 125 35290ft 511kts
21-Dec-17 20:21 35.425845 -120.984485 120 35293ft 507kts
21-Dec-17 20:22 35.343442 -120.845023 120 35269ft 508kts
21-Dec-17 20:23 35.262746 -120.709166 120 35270ft 508kts
21-Dec-17 20:24 35.179996 -120.569627 120 35272ft 508kts
21-Dec-17 20:25 35.097708 -120.430582 120 35274ft 508kts
21-Dec-17 20:26 35.016524 -120.293138 119 35270ft 499kts
21-Dec-17 20:27 34.935922 -120.156250 119 35274ft 500kts
21-Dec-17 20:28 34.858729 -120.025034 119 35258ft 500kts
21-Dec-17 20:29 34.778299 -119.888057 119 35259ft 499kts
21-Dec-17 20:30 34.699944 -119.754352 118 35013ft 498kts
21-Dec-17 20:31 34.620287 -119.618122 118 35203ft 499kts
21-Dec-17 20:32 34.540237 -119.481011 118 35237ft 498kts
21-Dec-17 20:33 34.461211 -119.345364 118 35216ft 497kts
21-Dec-17 20:34 34.384555 -119.213416 118 35219ft 497kts
21-Dec-17 20:35 34.305533 -119.077243 118 35214ft 497kts
21-Dec-17 20:36 34.226660 -118.941082 118 35215ft 496kts
21-Dec-17 20:37 34.148535 -118.805935 118 35217ft 496kts
21-Dec-17 20:38 34.073697 -118.676237 118 35192ft 496kts
21-Dec-17 20:39 33.996800 -118.542723 117 35215ft 496kts
21-Dec-17 20:40 33.919745 -118.413436 125 35083ft 462kts
21-Dec-17 20:41 33.836307 -118.306381 129 32822ft 455kts
21-Dec-17 20:42 33.749359 -118.193672 130 30531ft 467kts
21-Dec-17 20:43 33.662297 -118.079821 123 28227ft 452kts
21-Dec-17 20:44 33.580785 -117.972864 123 26065ft 430kts
21-Dec-17 20:45 33.497013 -117.870725 128 23930ft 427kts
21-Dec-17 20:46 33.415962 -117.775943 126 21880ft 383kts
21-Dec-17 20:47 33.348658 -117.693692 132 20143ft 319kts
21-Dec-17 20:48 33.288872 -117.620761 139 18610ft 311kts
21-Dec-17 20:49 33.219334 -117.552046 152 16776ft 343kts
21-Dec-17 20:50 33.138650 -117.484905 150 14963ft 355kts
21-Dec-17 20:51 33.065512 -117.423781 149 13424ft 302kts
21-Dec-17 20:52 32.999221 -117.368370 143 12022ft 281kts
21-Dec-17 20:53 32.941775 -117.318987 125 10844ft 242kts
21-Dec-17 20:54 32.920468 -117.245869 101 9571ft 229kts
21-Dec-17 20:55 32.901174 -117.174896 101 8286ft 220kts
21-Dec-17 20:56 32.885899 -117.106060 101 7974ft 219kts
21-Dec-17 20:57 32.872464 -117.035237 101 7972ft 219kts
21-Dec-17 20:58 32.859357 -116.964078 101 7973ft 222kts
21-Dec-17 20:59 32.846926 -116.892440 101 7972ft 221kts
21-Dec-17 21:00 32.808556 -116.851718 190 7562ft 209kts
21-Dec-17 21:01 32.753141 -116.865278 191 6266ft 198kts
21-Dec-17 21:02 32.701467 -116.878833 191 5061ft 181kts
21-Dec-17 21:03 32.671156 -116.916120 261 3971ft 174kts
21-Dec-17 21:04 32.679225 -116.970559 288 3966ft 167kts
21-Dec-17 21:05 32.692704 -117.022271 286 2693ft 166kts
21-Dec-17 21:06 32.704201 -117.071410 288 2186ft 151kts
21-Dec-17 21:07 32.716611 -117.119540 287 1329ft 151kts
21-Dec-17 21:08 32.728177 -117.167459 288 338ft 150kts
21-Dec-17 21:09 32.733923 -117.195288 246 24ft 10kts
21-Dec-17 21:10 32.733364 -117.196972 148 24ft 5kts
21-Dec-17 21:11 32.733131 -117.196752 138 24ft 0kts
21-Dec-17 21:12 32.733131 -117.196752 138 24ft 0kts

Navigation Log

Ident Type
Flight plan parsing failed, navigation log unavailable